Ibi, Spain
Current Conditions -  °F | °C
As of 8:00 AM on Sunday 23 Nov 2014 (Local Time) from LEAL Reporting Station
Scattered Clouds Scattered Clouds  
Wind Chill: 66°   Ceiling: Unl
Heat Index: 66°   Visibility: 6mi
Dew Point: 57°   Wind: 7mph
Humidity: 73%   Direction: 60°ENE
Pressure: 29.97"   Gusts: NA
Location:  38.63°N, 0.57°W
Report Text: LEAL 230700Z 06006KT 9999 FEW025 SCT038 19/14 Q1015 NOSIG
Loading
Personal Weather Stations






























Interactive Weather Map New forecast layout! Learn more

10-Day Weather Forecast

Advertisements
Track Severe Weather on mobile